Flight Track Log - Related Links

Times and Time Zones

All times are in EDT time to prevent confusion due to time zone crossing. See the SWA158 flight status page for this flight to view local times or setup timezone preferences in your user account.

Time Position Orientation Groundspeed Altitude Reporting Facility
EDT Latitude Longitude Course Direction KTS MPH feet Rate Location/Type
Mon 10:50:04 AM 40.8075 -111.9619 352° North 164 189 5,100  Level Salt Lake Center
Mon 10:51:05 AM 40.8567 -111.9708 352° North 197 227 6,700 1,810 Climbing Salt Lake Center
Mon 10:52:00 AM 40.9183 -111.9781 355° North 247 284 8,600 2,769 Climbing Salt Lake Center
Mon 10:53:15 AM 41.0125 -111.9469 14° North 313 360 12,700 3,088 Climbing Salt Lake Center
Mon 10:54:16 AM 41.0200 -111.8256 85° East 351 404 15,600 2,390 Climbing Salt Lake Center
Mon 10:55:18 AM 41.0256 -111.6942 87° East 378 435 17,600 2,146 Climbing Salt Lake Center
Mon 10:56:19 AM 41.0353 -111.5386 85° East 426 490 20,000 2,390 Climbing Salt Lake Center
Mon 10:57:21 AM 41.0497 -111.3775 83° East 441 507 22,500 2,098 Climbing Salt Lake Center
Mon 10:58:22 AM 41.0669 -111.1719 84° East 470 541 24,300 1,854 Climbing Salt Lake Center
Mon 10:59:24 AM 41.0958 -110.9931 78° East 494 568 26,300 1,805 Climbing Salt Lake Center
Mon 11:00:25 AM 41.1394 -110.8169 72° East 500 575 28,000 1,463 Climbing Salt Lake Center
Mon 11:01:27 AM 41.1844 -110.6417 71° East 519 597 29,300 1,645 Climbing Salt Lake Center
Mon 11:02:29 AM 41.2386 -110.4325 71° East 536 617 31,400 1,854 Climbing Salt Lake Center
Mon 11:03:30 AM 41.2842 -110.2533 71° East 536 617 33,100 1,756 Climbing Salt Lake Center
Mon 11:04:32 AM 41.3358 -110.0464 72° East 530 610 35,000 927 Climbing Salt Lake Center
Mon 11:05:33 AM 41.3803 -109.8719 71° East 523 602 35,000 732 Level Salt Lake Center
Mon 11:06:35 AM 41.4314 -109.6656 72° East 524 603 36,500 1,355 Climbing Salt Lake Center
Mon 11:07:37 AM 41.4753 -109.4889 72° East 524 603 37,800 1,113 Climbing Salt Lake Center
Mon 11:08:39 AM 41.5175 -109.3125 72° East 519 597 38,800 244 Climbing Salt Lake Center
Mon 11:09:40 AM 41.5675 -109.1075 72° East 510 587 38,300 -732 Descending Salt Lake Center
Mon 11:10:42 AM 41.5978 -108.9236 78° East 526 605 37,300 -629 Descending Salt Lake Center
Mon 11:11:44 AM 41.6131 -108.7361 84° East 529 609 37,000 -145 Descending Salt Lake Center
Mon 11:12:46 AM 41.6283 -108.5183 85° East 526 605 37,000  Level Salt Lake Center
Mon 11:13:47 AM 41.6417 -108.3333 84° East 524 603 37,000  Level Salt Lake Center
Mon 11:14:49 AM 41.6572 -108.1197 84° East 520 598 37,000  Level Salt Lake Center
Mon 11:15:51 AM 41.6714 -107.9378 84° East 515 593 37,000  Level Salt Lake Center
Mon 11:16:53 AM 41.6864 -107.7256 85° East 515 593 37,000  Level Salt Lake Center
Mon 11:17:53 AM 41.6975 -107.5431 85° East 510 587 37,000  Level Denver Center
Mon 11:17:55 AM 41.6975 -107.5431 85° East 515 593 37,000  Level Salt Lake Center
Mon 11:18:55 AM 41.7092 -107.3619 85° East 510 587 37,000  Level Denver Center
Mon 11:19:57 AM 41.7231 -107.1514 85° East 511 588 37,000  Level Denver Center
Mon 11:20:59 AM 41.7328 -106.9686 86° East 514 592 37,000  Level Denver Center
Mon 11:22:01 AM 41.7467 -106.7569 85° East 513 590 37,000  Level Denver Center
Mon 11:23:15 AM 41.7581 -106.5764 85° East 511 588 37,000  Level Denver Center
Mon 11:24:18 AM 41.7717 -106.3344 86° East 510 587 37,000  Level Denver Center
Mon 11:25:20 AM 41.7819 -106.1536 86° East 509 586 37,000  Level Denver Center
Mon 11:26:22 AM 41.7925 -105.9425 86° East 510 587 37,000  Level Denver Center
Mon 11:27:24 AM 41.8006 -105.7600 87° East 512 589 37,000  Level Denver Center
Mon 11:28:25 AM 41.8106 -105.5767 86° East 516 594 37,000  Level Denver Center
Mon 11:29:28 AM 41.8203 -105.3694 86° East 505 581 37,000  Level Denver Center
Mon 11:30:30 AM 41.8303 -105.1583 86° East 509 586 37,000  Level Denver Center
Mon 11:31:32 AM 41.8386 -104.9808 86° East 504 580 37,000  Level Denver Center
Mon 11:32:34 AM 41.8467 -104.7750 87° East 500 575 37,000  Level Denver Center
Mon 11:33:36 AM 41.8539 -104.5989 87° East 496 571 37,000  Level Denver Center
Mon 11:34:38 AM 41.8617 -104.3925 87° East 499 574 37,000  Level Denver Center
Mon 11:35:40 AM 41.8692 -104.2169 87° East 498 573 37,000  Level Denver Center
Mon 11:36:42 AM 41.8764 -104.0114 87° East 496 571 37,000  Level Denver Center
Mon 11:37:44 AM 41.8822 -103.8353 87° East 497 572 37,000  Level Denver Center
Mon 11:38:46 AM 41.8881 -103.6289 88° East 498 573 37,000  Level Denver Center
Mon 11:39:48 AM 41.8933 -103.4819 87° East 496 571 37,000  Level Denver Center
Mon 11:40:50 AM 41.8742 -103.2481 96° East 497 572 37,000  Level Denver Center
Mon 11:41:52 AM 41.8606 -103.0717 96° East 498 573 37,000  Level Denver Center
Mon 11:42:54 AM 41.8431 -102.8672 96° East 496 571 37,000  Level Denver Center
Mon 11:43:56 AM 41.8286 -102.6939 96° East 491 565 37,000  Level Denver Center
Mon 11:44:58 AM 41.8114 -102.4931 96° East 485 558 37,000  Level Denver Center
Mon 11:46:01 AM 41.7958 -102.3219 97° East 484 557 37,000  Level Denver Center
Mon 11:47:02 AM 41.7794 -102.1369 97° East 488 562 37,000  Level Denver Center
Mon 11:48:04 AM 41.7614 -101.9342 97° East 491 565 37,000  Level Denver Center
Mon 11:49:07 AM 41.7469 -101.7594 96° East 492 566 37,000  Level Denver Center
Mon 11:50:09 AM 41.7269 -101.5575 97° East 490 564 37,000  Level Denver Center
Mon 11:51:11 AM 41.7100 -101.3817 97° East 496 571 37,000  Level Denver Center
Mon 11:52:13 AM 41.6933 -101.2078 97° East 493 567 37,000  Level Denver Center
Mon 11:53:15 AM 41.6731 -101.0056 98° East 491 565 37,000  Level Denver Center
Mon 11:54:17 AM 41.6558 -100.8331 98° East 487 560 37,000  Level Denver Center
Mon 11:55:19 AM 41.6353 -100.6353 98° East 481 554 37,000  Level Denver Center
Mon 11:56:21 AM 41.6172 -100.4644 98° East 484 557 37,000  Level Denver Center
Mon 11:57:23 AM 41.5967 -100.2647 98° East 484 557 37,000  Level Denver Center
Mon 11:58:25 AM 41.5778 -100.0939 98° East 484 557 37,000  Level Denver Center
Mon 11:59:27 AM 41.5564 -99.8933 98° East 487 560 37,000  Level Denver Center
Mon 12:00:31 PM 41.5361 -99.7122 98° East 490 564 37,000  Level Denver Center
Mon 12:01:33 PM 41.5158 -99.5325 99° East 489 563 37,000  Level Denver Center
Mon 12:02:35 PM 41.4953 -99.3514 99° East 491 565 37,000  Level Denver Center
Mon 12:03:37 PM 41.4750 -99.1714 98° East 489 563 37,000  Level Denver Center
Mon 12:04:39 PM 41.4522 -98.9908 99° East 488 562 37,000 48 Level Denver Center
Mon 12:05:41 PM 41.4317 -98.8097 99° East 488 562 37,100 482 Climbing Denver Center
Mon 12:06:56 PM 41.3994 -98.5500 99° East 506 582 38,100 832 Climbing Minneapolis Center
Mon 12:07:58 PM 41.3822 -98.3508 97° East 516 594 39,000 439 Climbing Minneapolis Center
Mon 12:08:59 PM 41.3867 -98.1606 88° East 512 589 39,000  Level Minneapolis Center
Mon 12:10:00 PM 41.3881 -97.9828 89° East 508 585 39,000  Level Minneapolis Center
Mon 12:11:02 PM 41.3894 -97.7939 89° East 509 586 39,000  Level Minneapolis Center
Mon 12:12:03 PM 41.3903 -97.6061 90° East 508 585 39,000  Level Minneapolis Center
Mon 12:13:04 PM 41.3908 -97.4183 90° East 508 585 39,000  Level Minneapolis Center
Mon 12:14:06 PM 41.3931 -97.2308 89° East 507 583 39,000  Level Minneapolis Center
Mon 12:15:07 PM 41.3925 -97.0044 90° East 509 586 39,000  Level Minneapolis Center
Mon 12:16:09 PM 41.3917 -96.8167 90° East 508 585 39,000  Level Minneapolis Center
Mon 12:17:10 PM 41.3931 -96.6272 89° East 511 588 39,000  Level Minneapolis Center
Mon 12:18:11 PM 41.3925 -96.4375 90° East 514 592 39,000  Level Minneapolis Center
Mon 12:19:13 PM 41.3903 -96.2342 91° East 513 590 39,000  Level Minneapolis Center
Mon 12:20:14 PM 41.3842 -96.0411 92° East 518 596 39,000  Level Minneapolis Center
Mon 12:21:16 PM 41.3814 -95.8494 91° East 518 596 39,000  Level Minneapolis Center
Mon 12:22:17 PM 41.3814 -95.6575 90° East 519 597 39,000  Level Minneapolis Center
Mon 12:23:19 PM 41.3828 -95.4628 89° East 516 594 39,000  Level Minneapolis Center
Mon 12:24:20 PM 41.3797 -95.2764 91° East 507 583 39,000  Level Minneapolis Center
Mon 12:25:22 PM 41.3781 -95.0942 91° East 497 572 39,000  Level Minneapolis Center
Mon 12:26:23 PM 41.3750 -94.9117 91° East 494 568 39,000  Level Minneapolis Center
Mon 12:27:25 PM 41.3717 -94.7300 91° East 493 567 39,000  Level Minneapolis Center
Mon 12:28:26 PM 41.3669 -94.5522 92° East 485 558 39,000  Level Minneapolis Center
Mon 12:29:28 PM 41.3611 -94.3367 92° East 485 558 39,000  Level Minneapolis Center
Mon 12:30:29 PM 41.3581 -94.1772 91° East 487 560 39,000  Level Minneapolis Center
Mon 12:31:31 PM 41.3544 -93.9978 91° East 488 562 39,000  Level Minneapolis Center
Mon 12:32:32 PM 41.3481 -93.7833 92° East 487 560 39,000  Level Minneapolis Center
Mon 12:33:34 PM 41.3436 -93.6042 92° East 487 560 39,000  Level Minneapolis Center
Mon 12:34:36 PM 41.3403 -93.4217 91° East 492 566 39,000  Level Minneapolis Center
Mon 12:35:37 PM 41.3350 -93.2414 92° East 492 566 39,000  Level Minneapolis Center
Mon 12:36:39 PM 41.3281 -93.0644 93° East 487 560 39,000  Level Minneapolis Center
Mon 12:37:41 PM 41.3225 -92.8861 92° East 485 558 39,000 -146 Level Minneapolis Center
Mon 12:38:42 PM 41.3150 -92.7078 93° East 484 557 38,700 -587 Descending Minneapolis Center
Mon 12:39:13 PM 41.3108 -92.6031 93° East 479 551 38,100 -1,032 Descending Chicago Center
Mon 12:40:15 PM 41.3050 -92.4300 93° East 474 545 37,100 -823 Descending Chicago Center
Mon 12:41:17 PM 41.3000 -92.2564 92° East 476 548 36,400 -919 Descending Chicago Center
Mon 12:42:19 PM 41.2908 -92.0547 93° East 465 535 35,200 -1,065 Descending Chicago Center
Mon 12:43:21 PM 41.2828 -91.8847 94° East 465 535 34,200 -976 Descending Chicago Center
Mon 12:44:22 PM 41.2764 -91.7169 93° East 461 531 33,200 -1,317 Descending Chicago Center
Mon 12:45:24 PM 41.2694 -91.5528 93° East 454 522 31,500 -1,790 Descending Chicago Center
Mon 12:46:26 PM 41.2594 -91.3853 94° East 458 527 29,500 -1,210 Descending Chicago Center
Mon 12:47:28 PM 41.2503 -91.1942 94° East 462 532 29,000 -968 Descending Chicago Center
Mon 12:48:30 PM 41.2428 -91.0261 93° East 457 526 27,500 -2,081 Descending Chicago Center
Mon 12:49:32 PM 41.2339 -90.8578 94° East 456 525 24,700 -1,694 Descending Chicago Center
Mon 12:50:34 PM 41.2253 -90.6950 94° East 444 511 24,000 -339 Descending Chicago Center
Mon 12:51:36 PM 41.2169 -90.5356 94° East 435 501 24,000 -488 Level Chicago Center
Mon 12:52:37 PM 41.2050 -90.3408 95° East 439 505 23,000 -585 Descending Chicago Center
Mon 12:53:39 PM 41.1961 -90.1778 94° East 441 507 22,800 -1,161 Descending Chicago Center
Mon 12:54:41 PM 41.1864 -90.0131 94° East 443 510 20,600 -2,177 Descending Chicago Center
Mon 12:55:43 PM 41.1772 -89.8544 94° East 429 494 18,300 -2,032 Descending Chicago Center
Mon 12:56:45 PM 41.1672 -89.7006 95° East 418 481 16,400 -1,512 Descending Chicago Center
Mon 12:57:46 PM 41.1619 -89.5531 93° East 402 463 15,200 -1,073 Descending Chicago Center
Mon 12:58:48 PM 41.1728 -89.4064 84° East 399 459 14,200 -968 Descending Chicago Center
Mon 12:59:50 PM 41.1825 -89.2611 85° East 395 455 13,200 -968 Descending Chicago Center
Mon 01:00:52 PM 41.1919 -89.1161 85° East 386 444 12,200 -1,065 Descending Chicago Center
Mon 01:01:54 PM 41.2028 -88.9508 85° East 379 436 11,000 -1,016 Descending Chicago Center
Mon 01:02:56 PM 41.2097 -88.8181 86° East 371 427 10,100 -732 Descending Chicago Center
Mon 01:03:57 PM 41.2500 -88.7186 62° Northeast 344 396 9,500 -927 Descending Chicago Center
Mon 01:04:59 PM 41.3078 -88.6414 45° Northeast 313 360 8,200 -1,113 Descending Chicago Center
Mon 01:06:01 PM 41.3636 -88.5653 46° Northeast 298 343 7,200 -968 Descending Chicago Center
Mon 01:07:03 PM 41.4189 -88.4908 45° Northeast 289 333 6,200 -823 Descending Chicago Center
Mon 01:08:05 PM 41.4756 -88.3969 51° Northeast 281 323 5,500 -581 Descending Chicago Center
Mon 01:09:07 PM 41.5072 -88.3053 65° Northeast 274 315 5,000 -244 Descending Chicago Center
Mon 01:10:08 PM 41.5372 -88.2131 66° East 271 312 5,000  Level Chicago Center
Mon 01:11:10 PM 41.5544 -88.1153 77° East 272 313 5,000  Level Chicago Center
Mon 01:12:12 PM 41.5733 -88.0175 75° East 269 310 5,000  Level Chicago Center
Mon 01:13:14 PM 41.5919 -87.9214 75° East 268 308 5,000 -581 Level Chicago Center
Mon 01:14:16 PM 41.6117 -87.8244 75° East 268 308 3,800 -829 Descending Chicago Center
Mon 01:15:17 PM 41.6306 -87.7350 74° East 262 302 3,300 -522 Descending Chicago Center
Mon 01:15:48 PM 41.6500 -87.6833 63° Northeast 216 249 3,000 -527 Descending Chicago TRACON
Mon 01:16:48 PM 41.6833 -87.6333 48° Northeast 199 229 2,500 -286 Descending Chicago TRACON
Mon 01:17:54 PM 41.7333 -87.6500 346° North 178 205 2,400 -300 Descending Chicago TRACON
Mon 01:18:48 PM 41.7667 -87.6500 360° North 174 200 1,900 -400 Descending Chicago TRACON
Mon 01:19:54 PM 41.8167 -87.6833 334° Northwest 160 184 1,600 -476 Descending Chicago TRACON
Mon 01:20:54 PM 41.8000 -87.7333 246° West 134 154 900 -700 Descending Chicago TRACON

Login

Don't have an account? Register now (free) for customized features, flight alerts, and more!